Time;durP1;ratioP1;P1;durP2;ratioP2;P2;SDS_P1;SDS_P2;PMS_P1;PMS_P2;Temp;Humidity;BMP_temperature;BMP_pressure;BME280_temperature;BME280_humidity;BME280_pressure;Samples;Min_cycle;Max_cycle;Signal;HPM_P1;HPM_P2
2021/09/05 00:01:49;;;;;;;7.40;6.60;;;;;;;16.23;47.05;93940.88;4974562;28;20116;-78
2021/09/05 00:04:15;;;;;;;7.38;6.57;;;;;;;16.38;47.15;93965.47;4975893;28;20042;-78
2021/09/05 00:06:40;;;;;;;7.72;6.20;;;;;;;16.23;47.68;93957.00;4974321;28;20064;-77
2021/09/05 00:09:06;;;;;;;10.90;7.00;;;;;;;16.30;47.36;93956.41;4974820;28;20042;-77
2021/09/05 00:11:31;;;;;;;7.45;6.43;;;;;;;16.13;47.52;93940.66;4974376;28;20504;-78
2021/09/05 00:13:57;;;;;;;11.27;6.55;;;;;;;16.16;47.54;93956.81;4973656;28;20325;-77
2021/09/05 00:16:23;;;;;;;8.45;6.32;;;;;;;16.25;47.44;93962.81;4975570;28;20064;-77
2021/09/05 00:18:49;;;;;;;6.70;6.05;;;;;;;16.20;47.26;93952.31;4973924;28;20108;-77
2021/09/05 00:21:14;;;;;;;9.75;6.30;;;;;;;16.22;47.08;93976.91;4974972;28;20419;-78
2021/09/05 00:23:40;;;;;;;7.13;5.68;;;;;;;16.11;47.52;93964.34;4973053;28;20051;-78
2021/09/05 00:26:05;;;;;;;8.52;6.63;;;;;;;16.19;47.18;93972.22;4974942;28;20125;-78
2021/09/05 00:28:31;;;;;;;8.05;6.32;;;;;;;16.04;47.92;93948.81;4969784;28;20042;-77
2021/09/05 00:30:56;;;;;;;8.32;7.32;;;;;;;16.12;47.15;93947.91;4975374;28;20632;-79
2021/09/05 00:33:22;;;;;;;11.52;7.47;;;;;;;15.93;48.31;93947.78;4975612;28;20015;-78
2021/09/05 00:35:47;;;;;;;9.00;6.80;;;;;;;16.01;47.85;93948.75;4975366;28;20027;-77
2021/09/05 00:38:12;;;;;;;9.18;6.75;;;;;;;16.08;48.20;93975.78;4973487;28;20031;-78
2021/09/05 00:40:38;;;;;;;7.63;6.88;;;;;;;16.04;48.08;93972.97;4974598;28;20583;-77
2021/09/05 00:43:03;;;;;;;8.85;6.65;;;;;;;16.05;47.95;93977.22;4975099;28;20049;-78
2021/09/05 00:45:29;;;;;;;9.43;6.15;;;;;;;16.01;48.24;93975.56;4973608;28;20038;-78
2021/09/05 00:47:54;;;;;;;6.82;6.13;;;;;;;15.95;48.18;93972.34;4972776;28;20039;-77
2021/09/05 00:50:20;;;;;;;8.73;6.65;;;;;;;15.87;48.34;93986.69;4975545;28;20625;-78
2021/09/05 00:52:45;;;;;;;9.60;6.60;;;;;;;15.78;48.63;93972.66;4967220;28;20038;-79
2021/09/05 00:55:11;;;;;;;8.38;6.47;;;;;;;15.89;48.37;93979.06;4974423;28;20045;-79
2021/09/05 00:57:37;;;;;;;12.88;7.63;;;;;;;15.73;48.83;93970.22;4977124;28;20509;-77
2021/09/05 01:00:03;;;;;;;13.57;6.43;;;;;;;15.60;49.13;93976.72;4975207;28;20133;-78
2021/09/05 01:02:28;;;;;;;8.07;6.93;;;;;;;15.67;48.86;93982.31;4977791;28;20118;-78
2021/09/05 01:04:53;;;;;;;8.77;6.70;;;;;;;15.66;49.08;93991.47;4974485;28;20104;-78
2021/09/05 01:07:19;;;;;;;9.30;6.75;;;;;;;15.63;49.27;93989.47;4977421;28;20083;-78
2021/09/05 01:09:45;;;;;;;7.93;6.40;;;;;;;15.55;49.21;93968.94;4977336;28;20417;-77
2021/09/05 01:12:10;;;;;;;11.98;6.53;;;;;;;15.54;49.15;93994.19;4979295;28;20050;-78
2021/09/05 01:14:36;;;;;;;8.15;6.68;;;;;;;15.42;49.51;93976.97;4974451;28;20042;-78
2021/09/05 01:17:02;;;;;;;9.05;7.57;;;;;;;15.49;49.30;93991.75;4978896;28;20125;-77
2021/09/05 01:19:27;;;;;;;9.27;7.03;;;;;;;15.40;49.67;93995.28;4976144;28;20126;-77
2021/09/05 01:21:53;;;;;;;8.93;6.85;;;;;;;15.62;48.91;94002.09;4978082;28;20030;-78
2021/09/05 01:24:21;;;;;;;7.38;6.68;;;;;;;15.42;49.68;93993.06;4979023;28;20039;-79
2021/09/05 01:26:48;;;;;;;8.98;6.28;;;;;;;15.34;49.61;93994.00;4978152;28;20752;-77
2021/09/05 01:29:14;;;;;;;8.50;6.93;;;;;;;15.41;49.71;94002.22;4980104;28;20583;-77
2021/09/05 01:31:44;;;;;;;9.85;6.50;;;;;;;15.36;49.83;93994.41;4972022;28;20089;-77
2021/09/05 01:34:14;;;;;;;7.07;6.22;;;;;;;15.29;49.13;93978.13;4978971;28;20042;-78
2021/09/05 01:36:40;;;;;;;8.65;6.55;;;;;;;15.31;49.73;93986.59;4977631;28;20023;-79
2021/09/05 01:39:08;;;;;;;8.90;6.55;;;;;;;15.21;49.30;93976.34;4976803;28;20080;-77
2021/09/05 01:41:34;;;;;;;10.13;6.82;;;;;;;15.09;50.03;93964.88;4974139;28;20041;-78
2021/09/05 01:44:01;;;;;;;7.32;6.47;;;;;;;15.20;49.91;93987.41;4977780;28;20046;-77
2021/09/05 01:46:27;;;;;;;14.32;6.70;;;;;;;15.23;49.77;93990.19;4977794;28;20513;-78
2021/09/05 01:48:53;;;;;;;7.05;6.07;;;;;;;15.10;50.11;93991.34;4978105;28;20025;-78
2021/09/05 01:51:18;;;;;;;8.32;6.57;;;;;;;15.12;50.49;94005.16;4977372;28;20018;-77
2021/09/05 01:53:43;;;;;;;7.13;6.43;;;;;;;15.08;50.24;93988.22;4977862;28;20040;-78
2021/09/05 01:56:09;;;;;;;7.15;6.47;;;;;;;15.16;50.10;93986.50;4976465;28;20104;-79
2021/09/05 01:58:34;;;;;;;8.18;6.38;;;;;;;15.16;49.75;94002.59;4977441;28;20038;-77
2021/09/05 02:01:00;;;;;;;6.97;5.93;;;;;;;15.48;49.40;94003.59;4977800;28;20038;-78
2021/09/05 02:03:25;;;;;;;10.32;6.65;;;;;;;15.39;49.02;93982.25;4977489;28;20030;-78
2021/09/05 02:05:50;;;;;;;7.55;6.63;;;;;;;15.16;49.75;93992.66;4979353;28;20039;-77
2021/09/05 02:08:16;;;;;;;7.50;6.22;;;;;;;15.03;50.19;93997.25;4978415;28;20046;-77
2021/09/05 02:10:41;;;;;;;8.00;7.20;;;;;;;15.06;49.78;93998.47;4977763;28;20058;-77
2021/09/05 02:13:06;;;;;;;10.05;6.32;;;;;;;15.13;49.85;94011.31;4976271;28;20842;-78
2021/09/05 02:15:32;;;;;;;6.78;6.15;;;;;;;15.11;49.81;94011.63;4977341;28;20034;-77
2021/09/05 02:17:57;;;;;;;8.18;6.53;;;;;;;14.99;50.32;94017.00;4976385;28;20449;-79
2021/09/05 02:20:23;;;;;;;9.20;6.85;;;;;;;14.85;50.59;94016.56;4977448;28;20514;-77
2021/09/05 02:22:48;;;;;;;7.50;6.28;;;;;;;14.88;50.80;94010.53;4975829;28;20045;-77
2021/09/05 02:25:13;;;;;;;7.03;6.32;;;;;;;14.84;50.62;94015.00;4978338;28;20038;-78
2021/09/05 02:27:39;;;;;;;10.02;6.97;;;;;;;14.74;50.52;94000.16;4977865;28;20034;-77
2021/09/05 02:30:06;;;;;;;9.35;6.43;;;;;;;14.99;50.29;94014.34;4977781;28;20422;-77
2021/09/05 02:32:31;;;;;;;7.53;6.78;;;;;;;14.89;50.13;94006.75;4977305;28;20370;-77
2021/09/05 02:34:57;;;;;;;7.18;6.47;;;;;;;14.80;50.29;94004.19;4978181;28;20132;-78
2021/09/05 02:37:22;;;;;;;7.82;6.55;;;;;;;14.91;50.10;94020.59;4975922;28;20073;-77
2021/09/05 02:39:48;;;;;;;7.93;6.43;;;;;;;14.81;50.53;94018.34;4976769;28;20045;-77
2021/09/05 02:42:13;;;;;;;12.57;7.30;;;;;;;14.92;49.98;94017.56;4979171;28;20018;-77
2021/09/05 02:44:38;;;;;;;7.35;6.55;;;;;;;14.90;50.17;94021.69;4976885;28;20151;-77
2021/09/05 02:47:04;;;;;;;7.10;6.40;;;;;;;14.91;50.24;94013.31;4977039;28;20038;-78
2021/09/05 02:49:29;;;;;;;7.47;6.60;;;;;;;14.86;50.50;94010.09;4976682;28;20034;-78
2021/09/05 02:51:55;;;;;;;8.23;6.68;;;;;;;14.83;50.72;94016.09;4973335;28;20061;-78
2021/09/05 02:54:20;;;;;;;6.93;6.22;;;;;;;14.84;50.51;94012.31;4977879;28;20084;-76
2021/09/05 02:56:45;;;;;;;9.38;6.55;;;;;;;14.87;50.15;94008.97;4975637;28;20046;-77
2021/09/05 02:59:11;;;;;;;8.27;6.45;;;;;;;14.75;50.58;94007.09;4976816;28;20042;-77
2021/09/05 03:01:36;;;;;;;9.30;6.65;;;;;;;14.63;50.93;94006.28;4976260;28;20675;-77
2021/09/05 03:04:02;;;;;;;7.40;6.60;;;;;;;14.73;50.59;94006.63;4977522;28;20046;-79
2021/09/05 03:06:27;;;;;;;7.18;6.20;;;;;;;14.77;50.76;94014.75;4976391;28;20493;-77
2021/09/05 03:08:53;;;;;;;8.70;6.43;;;;;;;14.62;50.77;94013.53;4978319;28;20125;-78
2021/09/05 03:11:18;;;;;;;8.75;6.25;;;;;;;14.66;50.96;94024.38;4975545;28;20042;-77
2021/09/05 03:13:47;;;;;;;7.60;6.80;;;;;;;14.55;51.19;94008.75;4980277;28;20374;-79
2021/09/05 03:16:13;;;;;;;11.10;6.82;;;;;;;14.57;50.81;94003.81;4974784;28;20488;-78
2021/09/05 03:18:39;;;;;;;7.10;6.40;;;;;;;14.72;51.02;94015.75;4977887;28;20089;-77
2021/09/05 03:21:04;;;;;;;9.35;6.75;;;;;;;14.60;50.74;94015.75;4975600;28;20038;-78
2021/09/05 03:23:29;;;;;;;8.45;6.82;;;;;;;14.66;50.99;94027.03;4975989;28;20689;-77
2021/09/05 03:25:55;;;;;;;7.15;6.25;;;;;;;14.72;50.70;94023.78;4976347;28;20058;-78
2021/09/05 03:28:20;;;;;;;6.60;5.70;;;;;;;14.46;50.59;93997.31;4976501;28;20152;-76
2021/09/05 03:30:45;;;;;;;7.15;6.43;;;;;;;14.56;50.97;94026.38;4975387;28;20514;-77
2021/09/05 03:33:11;;;;;;;7.05;5.90;;;;;;;14.59;50.45;94019.56;4976274;28;20034;-78
2021/09/05 03:35:36;;;;;;;7.15;6.05;;;;;;;14.63;50.67;94017.75;4975370;28;20500;-78
2021/09/05 03:38:02;;;;;;;11.93;5.90;;;;;;;14.53;50.35;94018.97;4975826;28;20049;-77
2021/09/05 03:40:27;;;;;;;9.07;5.75;;;;;;;14.55;50.30;94011.41;4974435;28;20529;-77
2021/09/05 03:42:53;;;;;;;6.38;5.78;;;;;;;14.68;50.39;94043.53;4977146;28;20256;-79
2021/09/05 03:45:18;;;;;;;7.95;6.32;;;;;;;14.62;50.18;94026.16;4972875;28;20031;-78
2021/09/05 03:47:44;;;;;;;7.05;6.35;;;;;;;14.74;50.04;94043.00;4974180;28;20170;-77
2021/09/05 03:50:09;;;;;;;7.03;6.00;;;;;;;14.73;50.12;94051.34;4973599;28;20030;-78
2021/09/05 03:52:35;;;;;;;7.40;5.65;;;;;;;14.60;50.83;94045.22;4972794;28;20096;-78
2021/09/05 03:55:01;;;;;;;7.95;7.10;;;;;;;14.68;50.29;94048.88;4975008;28;20052;-78
2021/09/05 03:57:27;;;;;;;6.45;5.78;;;;;;;14.73;50.13;94051.34;4972901;28;20034;-78
2021/09/05 03:59:52;;;;;;;8.75;6.57;;;;;;;14.57;50.98;94054.66;4975196;28;20026;-77
2021/09/05 04:02:17;;;;;;;7.85;7.00;;;;;;;14.31;50.89;94013.22;4971342;28;20042;-78
2021/09/05 04:04:43;;;;;;;8.50;6.40;;;;;;;14.56;50.66;94042.41;4975252;28;20038;-79
2021/09/05 04:07:11;;;;;;;8.52;7.18;;;;;;;14.43;51.10;94021.28;4971501;28;20043;-76
2021/09/05 04:12:20;;;;;;;10.60;7.25;;;;;;;14.60;50.90;94043.31;4972543;28;20547;-78
2021/09/05 04:14:46;;;;;;;8.65;6.72;;;;;;;14.72;50.67;94052.47;4974234;28;20121;-78
2021/09/05 04:17:12;;;;;;;8.85;6.72;;;;;;;14.79;50.93;94058.06;4975615;28;20062;-78
2021/09/05 04:19:38;;;;;;;11.35;6.43;;;;;;;14.69;50.94;94045.09;4972754;28;20042;-78
2021/09/05 04:22:05;;;;;;;8.68;6.90;;;;;;;14.86;50.89;94066.34;4975472;28;20085;-79
2021/09/05 04:24:30;;;;;;;7.30;6.15;;;;;;;14.69;51.80;94061.94;4974291;28;20058;-77
2021/09/05 04:26:55;;;;;;;8.02;6.20;;;;;;;14.72;51.74;94069.31;4975441;28;20138;-78
2021/09/05 04:29:21;;;;;;;8.30;5.95;;;;;;;14.88;51.60;94050.69;4974983;28;20413;-79
2021/09/05 04:31:47;;;;;;;8.77;7.43;;;;;;;15.15;51.27;94068.81;4972605;28;20074;-77
2021/09/05 04:34:12;;;;;;;10.25;6.22;;;;;;;15.15;51.29;94074.16;4972402;28;20556;-78
2021/09/05 04:36:38;;;;;;;11.32;6.75;;;;;;;15.13;52.05;94072.91;4975266;28;20030;-78
2021/09/05 04:39:05;;;;;;;9.32;7.68;;;;;;;15.10;51.61;94050.28;4968510;28;20045;-78
2021/09/05 04:41:30;;;;;;;10.52;7.82;;;;;;;15.37;50.85;94051.47;4976018;28;20034;-77
2021/09/05 04:43:56;;;;;;;10.32;8.55;;;;;;;15.59;50.40;94066.34;4978199;28;20076;-78
2021/09/05 04:46:21;;;;;;;10.43;8.60;;;;;;;15.72;50.64;94065.19;4977349;28;20519;-78
2021/09/05 04:48:46;;;;;;;10.50;9.05;;;;;;;15.58;50.21;94054.81;4978171;28;20094;-77
2021/09/05 04:51:12;;;;;;;10.60;8.90;;;;;;;15.77;49.19;94064.94;4975498;28;20038;-78
2021/09/05 04:53:37;;;;;;;10.45;9.20;;;;;;;15.86;48.38;94050.28;4977588;28;20066;-78
2021/09/05 04:56:03;;;;;;;11.95;8.88;;;;;;;15.92;49.31;94055.41;4976030;28;20422;-78
2021/09/05 04:58:28;;;;;;;11.55;8.55;;;;;;;15.88;49.11;94049.94;4976183;28;20132;-78
2021/09/05 05:00:54;;;;;;;14.40;10.00;;;;;;;16.00;48.66;94059.84;4978485;28;20026;-77
2021/09/05 05:03:19;;;;;;;11.60;8.93;;;;;;;16.07;48.78;94066.19;4979674;28;20080;-78
2021/09/05 05:05:44;;;;;;;11.43;8.55;;;;;;;16.36;48.51;94067.78;4975356;28;20042;-79
2021/09/05 05:08:10;;;;;;;11.45;8.90;;;;;;;16.35;48.31;94066.22;4975985;28;20100;-77
2021/09/05 05:10:35;;;;;;;11.82;9.35;;;;;;;16.44;47.86;94074.13;4977496;28;20541;-78
2021/09/05 05:13:01;;;;;;;12.00;9.43;;;;;;;16.53;47.37;94066.69;4974744;28;20196;-77
2021/09/05 05:15:26;;;;;;;17.88;9.07;;;;;;;16.53;47.41;94074.72;4980382;28;20037;-77
2021/09/05 05:17:52;;;;;;;11.82;10.15;;;;;;;16.36;47.97;94057.06;4991330;28;20425;-77
2021/09/05 05:20:17;;;;;;;10.63;9.52;;;;;;;16.44;48.08;94080.25;4977996;28;20038;-77
2021/09/05 05:22:43;;;;;;;12.25;9.82;;;;;;;16.33;48.44;94074.59;4976339;28;20152;-78
2021/09/05 05:25:10;;;;;;;10.93;8.95;;;;;;;16.39;48.42;94075.16;4976920;28;20038;-77
2021/09/05 05:27:35;;;;;;;11.07;8.52;;;;;;;16.43;49.05;94072.56;4975888;28;20058;-78
2021/09/05 05:30:01;;;;;;;12.57;9.25;;;;;;;16.51;48.17;94069.72;4977751;28;20201;-77
2021/09/05 05:32:26;;;;;;;14.32;9.85;;;;;;;16.55;48.00;94077.88;4975761;28;20400;-78
2021/09/05 05:34:51;;;;;;;14.63;10.00;;;;;;;16.48;47.11;94067.72;4975479;28;20520;-78
2021/09/05 05:37:17;;;;;;;11.70;9.63;;;;;;;16.51;47.17;94077.78;4977143;28;20108;-78
2021/09/05 05:39:42;;;;;;;14.90;10.85;;;;;;;16.59;47.62;94084.88;4990816;28;20037;-78
2021/09/05 05:42:08;;;;;;;13.60;10.48;;;;;;;16.53;47.31;94088.16;4959144;28;20039;-77
2021/09/05 05:44:33;;;;;;;11.50;9.70;;;;;;;16.70;47.24;94101.28;4971613;28;20049;-78
2021/09/05 05:46:58;;;;;;;15.95;9.77;;;;;;;17.01;46.51;94103.22;4976655;28;20519;-78
2021/09/05 05:49:24;;;;;;;14.93;10.57;;;;;;;17.09;45.92;94100.38;4976196;28;20042;-78
2021/09/05 05:51:49;;;;;;;13.02;10.50;;;;;;;16.85;46.74;94084.41;4976612;28;20068;-78
2021/09/05 05:54:15;;;;;;;12.55;9.32;;;;;;;16.94;46.00;94087.72;4976739;28;20030;-77
2021/09/05 05:56:42;;;;;;;14.88;9.82;;;;;;;17.12;46.09;94083.53;4977794;28;20041;-77
2021/09/05 05:59:08;;;;;;;13.88;10.43;;;;;;;17.06;46.37;94076.84;4968249;28;20534;-77
2021/09/05 06:01:33;;;;;;;14.02;10.75;;;;;;;17.16;46.36;94095.19;4965314;28;20129;-79
2021/09/05 06:03:59;;;;;;;15.65;10.25;;;;;;;17.31;45.91;94090.94;4979523;28;20811;-76
2021/09/05 06:06:24;;;;;;;14.98;10.27;;;;;;;17.17;46.69;94091.38;4976998;28;20034;-77
2021/09/05 06:08:49;;;;;;;12.45;10.23;;;;;;;17.33;46.70;94082.53;4977439;28;20508;-78
2021/09/05 06:11:15;;;;;;;11.95;10.60;;;;;;;17.45;46.39;94095.88;4976729;28;20128;-77
2021/09/05 06:13:40;;;;;;;15.93;10.05;;;;;;;17.34;46.56;94084.09;4977866;28;20113;-78
2021/09/05 06:16:05;;;;;;;13.85;10.73;;;;;;;17.25;46.50;94096.94;4978085;28;20240;-77
2021/09/05 06:18:31;;;;;;;13.68;10.18;;;;;;;17.56;46.14;94113.78;4977275;28;20041;-78
2021/09/05 06:20:56;;;;;;;21.15;10.05;;;;;;;17.58;46.71;94113.47;4977441;28;20050;-77
2021/09/05 06:23:22;;;;;;;14.32;10.90;;;;;;;17.67;46.73;94115.94;4975290;28;20054;-78
2021/09/05 06:25:47;;;;;;;15.02;10.30;;;;;;;17.70;46.37;94112.56;4981833;28;20039;-77
2021/09/05 06:28:13;;;;;;;11.73;10.00;;;;;;;17.45;46.32;94095.88;4976960;28;20408;-78
2021/09/05 06:30:38;;;;;;;15.55;10.10;;;;;;;17.48;46.66;94100.53;4977382;28;20030;-78
2021/09/05 06:33:04;;;;;;;14.68;10.40;;;;;;;17.63;46.22;94107.03;4974401;28;20067;-79
2021/09/05 06:35:30;;;;;;;13.75;9.85;;;;;;;17.87;45.63;94115.66;4976287;28;20034;-78
2021/09/05 06:37:55;;;;;;;13.68;11.00;;;;;;;17.85;46.72;94123.28;4975631;28;20047;-78
2021/09/05 06:40:21;;;;;;;12.10;9.95;;;;;;;17.82;46.38;94131.28;4975190;28;20041;-79
2021/09/05 06:42:46;;;;;;;13.52;10.68;;;;;;;17.82;46.45;94132.06;4974590;28;20035;-78
2021/09/05 06:45:12;;;;;;;18.40;14.23;;;;;;;17.78;46.29;94119.66;4977444;28;20046;-78
2021/09/05 06:47:37;;;;;;;19.13;14.68;;;;;;;17.74;46.23;94119.59;4976249;28;20092;-78
2021/09/05 06:50:03;;;;;;;15.68;12.20;;;;;;;17.98;47.19;94135.53;4972159;28;20493;-78
2021/09/05 06:52:29;;;;;;;14.45;10.73;;;;;;;18.06;45.65;94119.53;4961739;28;20404;-78
2021/09/05 06:54:56;;;;;;;14.52;9.70;;;;;;;17.97;46.08;94117.81;4974868;28;20345;-78
2021/09/05 06:57:21;;;;;;;12.80;9.07;;;;;;;18.08;46.04;94142.28;4974608;28;20633;-78
2021/09/05 06:59:47;;;;;;;11.82;8.93;;;;;;;18.09;46.58;94140.38;4975220;28;20065;-79
2021/09/05 07:02:16;;;;;;;14.75;8.30;;;;;;;18.18;46.50;94138.25;4975141;28;20042;-78
2021/09/05 07:04:42;;;;;;;15.18;8.93;;;;;;;18.21;46.04;94134.84;4973653;28;20957;-78
2021/09/05 07:07:07;;;;;;;10.95;9.35;;;;;;;18.08;46.04;94126.13;4964751;28;20124;-79
2021/09/05 07:09:33;;;;;;;10.82;8.55;;;;;;;18.12;45.89;94139.66;4972648;28;20539;-78
2021/09/05 07:11:58;;;;;;;9.63;8.25;;;;;;;18.16;46.28;94140.50;4972854;28;20580;-77
2021/09/05 07:14:24;;;;;;;9.13;8.13;;;;;;;18.29;46.48;94156.16;4971535;28;20081;-77
2021/09/05 07:16:50;;;;;;;13.02;8.80;;;;;;;18.37;46.14;94154.41;4970406;28;20104;-78
2021/09/05 07:19:15;;;;;;;15.35;9.52;;;;;;;18.39;46.21;94158.31;4972753;28;20767;-78
2021/09/05 07:21:40;;;;;;;19.13;9.90;;;;;;;18.31;46.17;94153.13;4976133;28;20485;-79
2021/09/05 07:24:06;;;;;;;15.15;8.65;;;;;;;18.42;46.13;94149.53;4970443;28;20552;-79
2021/09/05 07:26:31;;;;;;;14.20;9.35;;;;;;;18.50;45.69;94142.38;4974345;28;20045;-78
2021/09/05 07:28:57;;;;;;;14.57;9.27;;;;;;;18.47;45.74;94156.56;4966999;28;20200;-77
2021/09/05 07:31:22;;;;;;;15.50;9.57;;;;;;;18.53;45.69;94163.19;4970878;28;20035;-78
2021/09/05 07:33:48;;;;;;;12.68;7.95;;;;;;;18.62;45.74;94155.72;4983692;28;20527;-78
2021/09/05 07:36:13;;;;;;;11.07;8.52;;;;;;;18.77;45.81;94157.53;4971534;28;20029;-77
2021/09/05 07:38:38;;;;;;;14.80;8.90;;;;;;;18.38;45.99;94139.81;4985970;28;20575;-78
2021/09/05 07:41:04;;;;;;;11.70;8.63;;;;;;;18.51;45.92;94162.78;4973021;28;20038;-79
2021/09/05 07:43:29;;;;;;;13.82;8.05;;;;;;;18.59;46.10;94167.16;4970794;28;20634;-79
2021/09/05 07:45:54;;;;;;;12.25;7.90;;;;;;;18.65;46.31;94156.91;4969757;28;20516;-79
2021/09/05 07:48:20;;;;;;;18.02;8.98;;;;;;;18.70;45.81;94154.72;4970564;28;20034;-78
2021/09/05 07:50:45;;;;;;;12.77;8.70;;;;;;;18.55;45.45;94147.47;4971613;28;20034;-78
2021/09/05 07:53:10;;;;;;;16.88;8.48;;;;;;;18.69;45.81;94153.13;4970718;28;21006;-78
2021/09/05 07:55:36;;;;;;;14.43;8.43;;;;;;;18.69;45.71;94166.59;4971133;28;20827;-78
2021/09/05 07:58:01;;;;;;;15.35;8.75;;;;;;;18.79;45.73;94171.44;4972366;28;20479;-78
2021/09/05 08:00:27;;;;;;;14.35;7.60;;;;;;;18.61;45.64;94167.59;4974253;28;20034;-78
2021/09/05 08:02:52;;;;;;;9.15;7.10;;;;;;;18.66;45.69;94153.06;4972076;28;20523;-77
2021/09/05 08:05:17;;;;;;;7.85;6.70;;;;;;;18.85;45.60;94171.94;4970954;28;20055;-79
2021/09/05 08:07:43;;;;;;;9.27;7.47;;;;;;;18.95;45.16;94154.41;4973435;28;20035;-78
2021/09/05 08:10:09;;;;;;;11.45;6.63;;;;;;;18.73;45.15;94150.53;4972670;28;20078;-78
2021/09/05 08:12:34;;;;;;;9.07;7.20;;;;;;;19.04;45.38;94174.59;4971243;28;20037;-79
2021/09/05 08:14:59;;;;;;;9.55;7.00;;;;;;;19.12;45.31;94172.81;4970772;28;20481;-79
2021/09/05 08:17:25;;;;;;;10.15;6.47;;;;;;;19.18;44.75;94168.69;4971286;28;20049;-78
2021/09/05 08:19:51;;;;;;;10.25;6.50;;;;;;;19.30;44.20;94171.22;4974228;28;20528;-79
2021/09/05 08:22:20;;;;;;;12.27;7.07;;;;;;;19.27;44.08;94174.63;4975820;28;20062;-78
2021/09/05 08:24:46;;;;;;;9.82;7.28;;;;;;;19.33;44.57;94148.94;4969746;28;20034;-78
2021/09/05 08:27:12;;;;;;;10.13;7.53;;;;;;;19.20;44.14;94167.22;4975700;28;20030;-79
2021/09/05 08:29:37;;;;;;;6.82;6.13;;;;;;;19.06;44.55;94152.69;4975202;28;20035;-77
2021/09/05 08:32:04;;;;;;;13.90;7.32;;;;;;;19.19;44.22;94171.03;4972955;28;20043;-77
2021/09/05 08:34:33;;;;;;;7.22;6.07;;;;;;;19.40;43.99;94175.25;4974964;28;20034;-78
2021/09/05 08:36:59;;;;;;;13.63;6.80;;;;;;;19.40;44.13;94149.06;4975691;28;20022;-78
2021/09/05 08:39:26;;;;;;;14.23;7.47;;;;;;;19.65;44.62;94150.25;4979675;28;20655;-78
2021/09/05 08:41:55;;;;;;;15.35;7.15;;;;;;;19.94;44.60;94156.09;4975247;28;20049;-78
2021/09/05 08:44:21;;;;;;;12.50;7.88;;;;;;;19.84;43.79;94151.31;4975291;28;20034;-78
2021/09/05 08:46:46;;;;;;;7.63;6.93;;;;;;;19.88;43.67;94155.63;4976745;28;20045;-79
2021/09/05 08:49:12;;;;;;;8.38;6.35;;;;;;;19.98;42.97;94162.31;4976441;28;20039;-78
2021/09/05 08:51:37;;;;;;;12.55;6.30;;;;;;;20.02;43.61;94155.03;4977349;28;20030;-78
2021/09/05 08:54:03;;;;;;;7.97;6.95;;;;;;;19.92;42.70;94144.84;4976607;28;20035;-78
2021/09/05 08:56:28;;;;;;;11.55;6.90;;;;;;;20.19;43.54;94145.66;4978815;28;20052;-79
2021/09/05 08:58:54;;;;;;;9.45;6.05;;;;;;;20.24;43.40;94111.00;4976944;28;20093;-77
2021/09/05 09:01:21;;;;;;;9.13;5.72;;;;;;;20.49;40.38;94149.13;4978116;28;20137;-79
2021/09/05 09:03:47;;;;;;;8.20;5.90;;;;;;;20.44;41.23;94142.13;4974899;28;20584;-78
2021/09/05 09:06:19;;;;;;;8.68;5.85;;;;;;;20.68;42.04;94150.91;4977462;28;20034;-78
2021/09/05 09:08:56;;;;;;;9.00;5.93;;;;;;;20.84;41.43;94148.75;4975081;28;20034;-78
2021/09/05 09:11:22;;;;;;;5.47;4.85;;;;;;;20.77;39.42;94154.09;4969915;28;20066;-79
2021/09/05 09:13:55;;;;;;;13.15;4.63;;;;;;;20.74;39.05;94130.50;4973255;28;20724;-77
2021/09/05 09:16:20;;;;;;;7.03;4.03;;;;;;;20.80;36.70;94147.94;4972875;28;20045;-77
2021/09/05 09:18:45;;;;;;;7.03;5.65;;;;;;;20.91;37.78;94146.97;4975634;28;20042;-78
2021/09/05 09:21:18;;;;;;;8.10;4.47;;;;;;;21.00;38.40;94135.84;4972614;28;20042;-78
2021/09/05 09:23:43;;;;;;;9.43;4.70;;;;;;;20.77;36.02;94127.84;4973101;28;20035;-78
2021/09/05 09:26:14;;;;;;;7.70;5.28;;;;;;;20.98;37.33;94135.41;4972530;28;20060;-79
2021/09/05 09:28:47;;;;;;;7.82;6.13;;;;;;;20.98;35.92;94136.19;4970842;28;20379;-78
2021/09/05 09:31:28;;;;;;;8.40;5.40;;;;;;;20.89;36.02;94134.94;4974380;28;20049;-78
2021/09/05 09:33:55;;;;;;;8.43;5.65;;;;;;;20.59;36.61;94121.44;4990741;28;20030;-78
2021/09/05 09:36:30;;;;;;;6.85;4.25;;;;;;;20.68;36.22;94107.69;4976878;28;20030;-80
2021/09/05 09:38:58;;;;;;;11.20;4.70;;;;;;;20.62;36.39;94133.47;4973447;28;20073;-78
2021/09/05 09:41:38;;;;;;;6.82;4.88;;;;;;;20.50;35.82;94132.56;4969486;28;20405;-77
2021/09/05 09:44:06;;;;;;;5.20;4.70;;;;;;;20.58;36.80;94107.16;4964853;28;20043;-77
2021/09/05 09:46:33;;;;;;;6.22;4.78;;;;;;;20.81;36.75;94130.59;4973646;28;20117;-78
2021/09/05 09:49:02;;;;;;;8.25;4.63;;;;;;;20.92;36.46;94123.41;4972986;28;20027;-77
2021/09/05 09:51:28;;;;;;;8.35;5.03;;;;;;;20.99;35.90;94124.25;4967283;28;20027;-78
2021/09/05 09:53:54;;;;;;;8.70;4.47;;;;;;;20.84;36.83;94132.53;4976333;28;20397;-78
2021/09/05 09:56:21;;;;;;;5.32;4.80;;;;;;;21.07;36.36;94119.66;4974385;28;20065;-77
2021/09/05 09:58:52;;;;;;;10.27;3.92;;;;;;;21.03;35.86;94118.88;4974178;28;20113;-79
2021/09/05 10:01:23;;;;;;;5.90;4.70;;;;;;;21.18;35.88;94125.97;4974185;28;20460;-78
2021/09/05 10:03:50;;;;;;;7.40;5.15;;;;;;;21.23;36.11;94122.13;4960665;28;20474;-78
2021/09/05 10:06:17;;;;;;;7.75;5.00;;;;;;;21.45;35.88;94123.91;4960550;28;20054;-78
2021/09/05 10:08:43;;;;;;;6.45;4.68;;;;;;;21.41;34.61;94128.50;4971588;28;20428;-77
2021/09/05 10:11:10;;;;;;;9.57;5.15;;;;;;;21.53;35.37;94130.13;4970251;28;20065;-78
2021/09/05 10:13:40;;;;;;;5.82;5.10;;;;;;;21.48;34.45;94127.78;4972957;28;20773;-78
2021/09/05 10:16:07;;;;;;;5.03;4.55;;;;;;;21.35;34.60;94124.59;4973713;28;20157;-78
2021/09/05 10:18:34;;;;;;;4.78;4.28;;;;;;;21.60;36.02;94122.88;4972897;28;20029;-77
2021/09/05 10:21:00;;;;;;;6.07;5.45;;;;;;;21.55;34.76;94103.50;4975365;28;20043;-77
2021/09/05 10:23:31;;;;;;;24.90;5.97;;;;;;;21.73;36.73;94110.59;4976041;28;20635;-78
2021/09/05 10:26:04;;;;;;;11.25;5.82;;;;;;;21.85;34.84;94117.66;4976620;28;20801;-77
2021/09/05 10:28:37;;;;;;;5.57;4.63;;;;;;;21.92;35.28;94125.81;4974671;28;20034;-78
2021/09/05 10:31:04;;;;;;;12.63;4.90;;;;;;;21.85;34.47;94099.44;4975018;28;20054;-77
2021/09/05 10:33:35;;;;;;;5.43;4.15;;;;;;;21.69;32.91;94106.31;4976070;28;20041;-77
2021/09/05 10:36:12;;;;;;;4.97;4.47;;;;;;;21.66;33.60;94107.06;4975061;28;20038;-79
2021/09/05 10:38:39;;;;;;;7.60;4.90;;;;;;;21.78;33.93;94117.59;4973272;28;20042;-79
2021/09/05 10:41:09;;;;;;;5.40;4.18;;;;;;;21.90;34.27;94111.88;4974123;28;21080;-77
2021/09/05 10:43:59;;;;;;;6.47;5.22;;;;;;;21.96;33.45;94115.00;4973734;28;20038;-78
2021/09/05 10:46:38;;;;;;;6.20;4.60;;;;;;;22.03;33.45;94115.03;4974062;28;20045;-78
2021/09/05 10:49:04;;;;;;;5.03;4.50;;;;;;;22.07;33.31;94110.41;4976075;28;20504;-78
2021/09/05 10:51:40;;;;;;;5.95;4.60;;;;;;;22.12;33.14;94110.06;4974503;28;20487;-77
2021/09/05 10:54:21;;;;;;;8.20;4.88;;;;;;;22.03;33.45;94099.56;4975387;28;20662;-77
2021/09/05 10:56:47;;;;;;;5.82;5.18;;;;;;;22.07;33.74;94115.84;4974845;28;20534;-78
2021/09/05 10:59:22;;;;;;;5.18;4.68;;;;;;;22.03;33.52;94110.41;4977929;28;20042;-77
2021/09/05 11:01:47;;;;;;;;;;;;;;;22.07;33.74;94111.19;4974473;28;20707;-78
2021/09/05 11:04:13;;;;;;;7.10;4.80;;;;;;;22.05;33.33;94113.50;4976855;28;19932;-78
2021/09/05 11:06:57;;;;;;;8.38;5.15;;;;;;;22.15;33.35;94112.00;4976916;28;20600;-79
2021/09/05 11:09:23;;;;;;;6.47;3.83;;;;;;;22.40;33.10;94110.22;4976158;28;20434;-78
2021/09/05 11:11:57;;;;;;;4.85;4.35;;;;;;;22.55;32.39;94119.97;4975305;28;20347;-78
2021/09/05 11:14:48;;;;;;;5.45;4.50;;;;;;;22.58;32.16;94113.81;4993380;28;20054;-77
2021/09/05 11:17:19;;;;;;;4.88;4.15;;;;;;;22.61;32.15;94117.69;4974577;28;20639;-79
2021/09/05 11:20:11;;;;;;;6.25;4.75;;;;;;;22.60;32.11;94116.13;4977916;28;20038;-79
2021/09/05 11:22:45;;;;;;;4.93;4.43;;;;;;;22.41;32.46;94108.28;4968225;28;20042;-78
2021/09/05 11:25:15;;;;;;;7.90;4.30;;;;;;;22.46;32.53;94107.94;4970578;28;20066;-78
2021/09/05 11:27:49;;;;;;;7.30;4.03;;;;;;;22.61;32.59;94114.97;4975128;28;20168;-77
2021/09/05 11:30:15;;;;;;;6.30;5.03;;;;;;;22.59;32.41;94092.88;4972556;28;20141;-77